Terminal Aerodrome Forecast
Issued by NWS

Home | Current Version | Previous Version | Text Only | Print | Product List | Glossary On
Versions: 1 2 3 4 5 6 7 8 9
946
FTPA31 PHFO 251736
TAFHJR
TAF
PHJR 251736Z 2518/2618 05004KT P6SM FEW050
     FM252100 12010G16KT P6SM SCT050
     FM260400 05004KT P6SM FEW050=

USA.gov is the U.S. government's official web portal to all federal, state and local government web resources and services.